sensor_id;sensor_type;location;lat;lon;timestamp;temperature;humidity
33095;DHT22;19459;53.044;8.910;2023-09-19T00:00:41;16.80;99.90
33095;DHT22;19459;53.044;8.910;2023-09-19T00:03:07;16.80;99.90
33095;DHT22;19459;53.044;8.910;2023-09-19T00:05:35;16.80;99.90
33095;DHT22;19459;53.044;8.910;2023-09-19T00:08:04;16.70;99.90
33095;DHT22;19459;53.044;8.910;2023-09-19T00:10:32;16.70;99.90
33095;DHT22;19459;53.044;8.910;2023-09-19T00:13:01;16.80;99.90
33095;DHT22;19459;53.044;8.910;2023-09-19T00:15:36;16.80;99.90
33095;DHT22;19459;53.044;8.910;2023-09-19T00:18:03;16.70;99.90
33095;DHT22;19459;53.044;8.910;2023-09-19T00:20:36;16.70;99.90
33095;DHT22;19459;53.044;8.910;2023-09-19T00:23:02;16.70;99.90
33095;DHT22;19459;53.044;8.910;2023-09-19T00:25:31;16.80;99.90
33095;DHT22;19459;53.044;8.910;2023-09-19T00:28:01;16.80;99.90
33095;DHT22;19459;53.044;8.910;2023-09-19T00:30:27;16.80;99.90
33095;DHT22;19459;53.044;8.910;2023-09-19T00:32:52;16.80;99.90
33095;DHT22;19459;53.044;8.910;2023-09-19T00:35:18;16.80;99.90
33095;DHT22;19459;53.044;8.910;2023-09-19T00:37:44;16.80;99.90
33095;DHT22;19459;53.044;8.910;2023-09-19T00:40:11;16.80;99.90
33095;DHT22;19459;53.044;8.910;2023-09-19T00:42:38;16.80;99.90
33095;DHT22;19459;53.044;8.910;2023-09-19T00:45:09;16.80;99.90
33095;DHT22;19459;53.044;8.910;2023-09-19T00:47:42;16.80;99.90
33095;DHT22;19459;53.044;8.910;2023-09-19T00:50:09;16.80;99.90
33095;DHT22;19459;53.044;8.910;2023-09-19T00:52:37;16.80;99.90
33095;DHT22;19459;53.044;8.910;2023-09-19T00:55:08;16.80;99.90
33095;DHT22;19459;53.044;8.910;2023-09-19T00:57:35;16.90;99.90
33095;DHT22;19459;53.044;8.910;2023-09-19T01:00:04;16.90;99.90
33095;DHT22;19459;53.044;8.910;2023-09-19T01:02:32;16.90;99.90
33095;DHT22;19459;53.044;8.910;2023-09-19T01:04:59;16.90;99.90
33095;DHT22;19459;53.044;8.910;2023-09-19T01:07:27;16.90;99.90
33095;DHT22;19459;53.044;8.910;2023-09-19T01:09:56;16.90;99.90
33095;DHT22;19459;53.044;8.910;2023-09-19T01:12:38;16.90;99.90
33095;DHT22;19459;53.044;8.910;2023-09-19T01:20:39;16.90;99.90
33095;DHT22;19459;53.044;8.910;2023-09-19T01:23:23;16.90;99.90
33095;DHT22;19459;53.044;8.910;2023-09-19T01:26:45;16.90;99.90
33095;DHT22;19459;53.044;8.910;2023-09-19T01:32:10;16.70;99.90
33095;DHT22;19459;53.044;8.910;2023-09-19T01:37:20;16.40;99.90
33095;DHT22;19459;53.044;8.910;2023-09-19T01:43:09;16.10;99.90
33095;DHT22;19459;53.044;8.910;2023-09-19T01:51:11;15.70;99.90
33095;DHT22;19459;53.044;8.910;2023-09-19T01:53:55;15.70;99.90
33095;DHT22;19459;53.044;8.910;2023-09-19T01:59:27;15.60;99.90
33095;DHT22;19459;53.044;8.910;2023-09-19T02:01:58;15.60;99.90
33095;DHT22;19459;53.044;8.910;2023-09-19T02:04:25;15.50;99.90
33095;DHT22;19459;53.044;8.910;2023-09-19T02:06:53;15.50;99.90
33095;DHT22;19459;53.044;8.910;2023-09-19T02:09:19;15.30;99.90
33095;DHT22;19459;53.044;8.910;2023-09-19T02:11:44;15.30;99.90
33095;DHT22;19459;53.044;8.910;2023-09-19T02:14:11;15.20;99.90
33095;DHT22;19459;53.044;8.910;2023-09-19T02:16:37;15.20;99.90
33095;DHT22;19459;53.044;8.910;2023-09-19T02:19:03;15.20;99.90
33095;DHT22;19459;53.044;8.910;2023-09-19T02:21:33;15.10;99.90
33095;DHT22;19459;53.044;8.910;2023-09-19T02:23:58;15.10;99.90
33095;DHT22;19459;53.044;8.910;2023-09-19T02:26:24;15.10;99.90
33095;DHT22;19459;53.044;8.910;2023-09-19T02:28:50;15.20;99.90
33095;DHT22;19459;53.044;8.910;2023-09-19T02:31:16;15.10;99.90
33095;DHT22;19459;53.044;8.910;2023-09-19T02:33:42;15.20;99.90
33095;DHT22;19459;53.044;8.910;2023-09-19T02:36:08;15.10;99.90
33095;DHT22;19459;53.044;8.910;2023-09-19T02:38:35;15.10;99.90
33095;DHT22;19459;53.044;8.910;2023-09-19T02:41:01;15.10;99.90
33095;DHT22;19459;53.044;8.910;2023-09-19T02:43:27;15.10;99.90
33095;DHT22;19459;53.044;8.910;2023-09-19T02:45:53;15.00;99.90
33095;DHT22;19459;53.044;8.910;2023-09-19T02:48:19;15.00;99.90
33095;DHT22;19459;53.044;8.910;2023-09-19T02:50:55;15.00;99.90
33095;DHT22;19459;53.044;8.910;2023-09-19T02:53:20;15.00;99.90
33095;DHT22;19459;53.044;8.910;2023-09-19T02:55:47;15.00;99.90
33095;DHT22;19459;53.044;8.910;2023-09-19T02:58:13;15.00;99.90
33095;DHT22;19459;53.044;8.910;2023-09-19T03:00:40;15.00;99.90
33095;DHT22;19459;53.044;8.910;2023-09-19T03:03:07;14.90;99.90
33095;DHT22;19459;53.044;8.910;2023-09-19T03:05:34;14.90;99.90
33095;DHT22;19459;53.044;8.910;2023-09-19T03:08:00;14.80;99.90
33095;DHT22;19459;53.044;8.910;2023-09-19T03:10:27;14.70;99.90
33095;DHT22;19459;53.044;8.910;2023-09-19T03:12:53;14.70;99.90
33095;DHT22;19459;53.044;8.910;2023-09-19T03:15:19;14.80;99.90
33095;DHT22;19459;53.044;8.910;2023-09-19T03:17:47;14.70;99.90
33095;DHT22;19459;53.044;8.910;2023-09-19T03:20:14;14.70;99.90
33095;DHT22;19459;53.044;8.910;2023-09-19T03:22:44;14.60;99.90
33095;DHT22;19459;53.044;8.910;2023-09-19T03:25:11;14.60;99.90
33095;DHT22;19459;53.044;8.910;2023-09-19T03:27:38;14.60;99.90
33095;DHT22;19459;53.044;8.910;2023-09-19T03:30:05;14.60;99.90
33095;DHT22;19459;53.044;8.910;2023-09-19T03:32:35;14.50;99.90
33095;DHT22;19459;53.044;8.910;2023-09-19T03:35:02;14.50;99.90
33095;DHT22;19459;53.044;8.910;2023-09-19T03:37:31;14.50;99.90
33095;DHT22;19459;53.044;8.910;2023-09-19T03:39:58;14.40;99.90
33095;DHT22;19459;53.044;8.910;2023-09-19T03:42:24;14.40;99.90
33095;DHT22;19459;53.044;8.910;2023-09-19T03:44:52;14.40;99.90
33095;DHT22;19459;53.044;8.910;2023-09-19T03:47:18;14.40;99.90
33095;DHT22;19459;53.044;8.910;2023-09-19T03:49:47;14.40;99.90
33095;DHT22;19459;53.044;8.910;2023-09-19T03:52:12;14.40;99.90
33095;DHT22;19459;53.044;8.910;2023-09-19T03:54:38;14.50;99.90
33095;DHT22;19459;53.044;8.910;2023-09-19T03:57:06;14.40;99.90
33095;DHT22;19459;53.044;8.910;2023-09-19T03:59:32;14.40;99.90
33095;DHT22;19459;53.044;8.910;2023-09-19T04:01:58;14.40;99.90
33095;DHT22;19459;53.044;8.910;2023-09-19T04:04:24;14.40;99.90
33095;DHT22;19459;53.044;8.910;2023-09-19T04:06:53;14.40;99.90
33095;DHT22;19459;53.044;8.910;2023-09-19T04:09:19;14.50;99.90
33095;DHT22;19459;53.044;8.910;2023-09-19T04:11:45;14.40;99.90
33095;DHT22;19459;53.044;8.910;2023-09-19T04:14:10;14.50;99.90
33095;DHT22;19459;53.044;8.910;2023-09-19T04:16:36;14.40;99.90
33095;DHT22;19459;53.044;8.910;2023-09-19T04:19:02;14.50;99.90
33095;DHT22;19459;53.044;8.910;2023-09-19T04:21:29;14.40;99.90
33095;DHT22;19459;53.044;8.910;2023-09-19T04:23:55;14.40;99.90
33095;DHT22;19459;53.044;8.910;2023-09-19T04:26:20;14.40;99.90
33095;DHT22;19459;53.044;8.910;2023-09-19T04:28:47;14.40;99.90
33095;DHT22;19459;53.044;8.910;2023-09-19T04:31:13;14.40;99.90
33095;DHT22;19459;53.044;8.910;2023-09-19T04:33:39;14.30;99.90
33095;DHT22;19459;53.044;8.910;2023-09-19T04:36:06;14.30;99.90
33095;DHT22;19459;53.044;8.910;2023-09-19T04:38:33;14.40;99.90
33095;DHT22;19459;53.044;8.910;2023-09-19T04:40:59;14.30;99.90
33095;DHT22;19459;53.044;8.910;2023-09-19T04:43:25;14.40;99.90
33095;DHT22;19459;53.044;8.910;2023-09-19T04:45:52;14.40;99.90
33095;DHT22;19459;53.044;8.910;2023-09-19T04:48:22;14.40;99.90
33095;DHT22;19459;53.044;8.910;2023-09-19T04:50:51;14.40;99.90
33095;DHT22;19459;53.044;8.910;2023-09-19T04:53:18;14.30;99.90
33095;DHT22;19459;53.044;8.910;2023-09-19T04:55:50;14.40;99.90
33095;DHT22;19459;53.044;8.910;2023-09-19T04:58:18;14.40;99.90
33095;DHT22;19459;53.044;8.910;2023-09-19T05:00:45;14.40;99.90
33095;DHT22;19459;53.044;8.910;2023-09-19T05:03:11;14.40;99.90
33095;DHT22;19459;53.044;8.910;2023-09-19T05:05:37;14.40;99.90
33095;DHT22;19459;53.044;8.910;2023-09-19T05:08:04;14.40;99.90
33095;DHT22;19459;53.044;8.910;2023-09-19T05:10:32;14.30;99.90
33095;DHT22;19459;53.044;8.910;2023-09-19T05:12:58;14.30;99.90
33095;DHT22;19459;53.044;8.910;2023-09-19T05:15:23;14.30;99.90
33095;DHT22;19459;53.044;8.910;2023-09-19T05:17:52;14.30;99.90
33095;DHT22;19459;53.044;8.910;2023-09-19T05:20:20;14.40;99.90
33095;DHT22;19459;53.044;8.910;2023-09-19T05:23:01;14.30;99.90
33095;DHT22;19459;53.044;8.910;2023-09-19T05:25:30;14.30;99.90
33095;DHT22;19459;53.044;8.910;2023-09-19T05:27:58;14.40;99.90
33095;DHT22;19459;53.044;8.910;2023-09-19T05:30:25;14.40;99.90
33095;DHT22;19459;53.044;8.910;2023-09-19T05:32:53;14.40;99.90
33095;DHT22;19459;53.044;8.910;2023-09-19T05:35:20;14.40;99.90
33095;DHT22;19459;53.044;8.910;2023-09-19T05:37:47;14.40;99.90
33095;DHT22;19459;53.044;8.910;2023-09-19T05:40:19;14.50;99.90
33095;DHT22;19459;53.044;8.910;2023-09-19T05:42:45;14.50;99.90
33095;DHT22;19459;53.044;8.910;2023-09-19T05:45:13;14.60;99.90
33095;DHT22;19459;53.044;8.910;2023-09-19T05:47:40;14.60;99.90
33095;DHT22;19459;53.044;8.910;2023-09-19T05:50:07;14.70;99.90
33095;DHT22;19459;53.044;8.910;2023-09-19T05:52:36;14.70;99.90
33095;DHT22;19459;53.044;8.910;2023-09-19T05:55:04;14.80;99.90
33095;DHT22;19459;53.044;8.910;2023-09-19T05:57:32;14.90;99.90
33095;DHT22;19459;53.044;8.910;2023-09-19T06:00:00;14.90;99.90
33095;DHT22;19459;53.044;8.910;2023-09-19T06:02:26;14.90;99.90
33095;DHT22;19459;53.044;8.910;2023-09-19T06:04:54;15.00;99.90
33095;DHT22;19459;53.044;8.910;2023-09-19T06:07:22;15.00;99.90
33095;DHT22;19459;53.044;8.910;2023-09-19T06:09:51;15.00;99.90
33095;DHT22;19459;53.044;8.910;2023-09-19T06:12:21;15.00;99.90
33095;DHT22;19459;53.044;8.910;2023-09-19T06:14:46;15.00;99.90
33095;DHT22;19459;53.044;8.910;2023-09-19T06:17:13;15.10;99.90
33095;DHT22;19459;53.044;8.910;2023-09-19T06:19:39;15.10;99.90
33095;DHT22;19459;53.044;8.910;2023-09-19T06:22:07;15.10;99.90
33095;DHT22;19459;53.044;8.910;2023-09-19T06:24:33;15.10;99.90
33095;DHT22;19459;53.044;8.910;2023-09-19T06:26:58;15.10;99.90
33095;DHT22;19459;53.044;8.910;2023-09-19T06:29:26;15.10;99.90
33095;DHT22;19459;53.044;8.910;2023-09-19T06:31:52;15.10;99.90
33095;DHT22;19459;53.044;8.910;2023-09-19T06:34:17;15.10;99.90
33095;DHT22;19459;53.044;8.910;2023-09-19T06:36:43;15.10;99.90
33095;DHT22;19459;53.044;8.910;2023-09-19T06:39:10;15.20;99.90
33095;DHT22;19459;53.044;8.910;2023-09-19T06:41:37;15.10;99.90
33095;DHT22;19459;53.044;8.910;2023-09-19T06:44:04;15.10;99.90
33095;DHT22;19459;53.044;8.910;2023-09-19T06:46:31;15.20;99.90
33095;DHT22;19459;53.044;8.910;2023-09-19T06:49:00;15.20;99.90
33095;DHT22;19459;53.044;8.910;2023-09-19T06:51:31;15.20;99.90
33095;DHT22;19459;53.044;8.910;2023-09-19T06:54:00;15.20;99.90
33095;DHT22;19459;53.044;8.910;2023-09-19T06:56:27;15.20;99.90
33095;DHT22;19459;53.044;8.910;2023-09-19T06:58:52;15.20;99.90
33095;DHT22;19459;53.044;8.910;2023-09-19T07:01:18;15.30;99.90
33095;DHT22;19459;53.044;8.910;2023-09-19T07:03:44;15.30;99.90
33095;DHT22;19459;53.044;8.910;2023-09-19T07:06:11;15.40;99.90
33095;DHT22;19459;53.044;8.910;2023-09-19T07:08:37;15.40;99.90
33095;DHT22;19459;53.044;8.910;2023-09-19T07:11:04;15.50;99.90
33095;DHT22;19459;53.044;8.910;2023-09-19T07:13:31;15.50;99.90
33095;DHT22;19459;53.044;8.910;2023-09-19T07:15:59;15.50;99.90
33095;DHT22;19459;53.044;8.910;2023-09-19T07:18:25;15.50;99.90
33095;DHT22;19459;53.044;8.910;2023-09-19T07:20:51;15.50;99.90
33095;DHT22;19459;53.044;8.910;2023-09-19T07:23:21;15.50;99.90
33095;DHT22;19459;53.044;8.910;2023-09-19T07:25:51;15.60;99.90
33095;DHT22;19459;53.044;8.910;2023-09-19T07:28:17;15.70;99.90
33095;DHT22;19459;53.044;8.910;2023-09-19T07:30:43;15.80;99.90
33095;DHT22;19459;53.044;8.910;2023-09-19T07:33:09;15.90;99.90
33095;DHT22;19459;53.044;8.910;2023-09-19T07:35:38;16.00;99.90
33095;DHT22;19459;53.044;8.910;2023-09-19T07:38:07;16.00;99.90
33095;DHT22;19459;53.044;8.910;2023-09-19T07:40:35;16.00;99.90
33095;DHT22;19459;53.044;8.910;2023-09-19T07:43:02;16.00;99.90
33095;DHT22;19459;53.044;8.910;2023-09-19T07:45:30;16.00;99.90
33095;DHT22;19459;53.044;8.910;2023-09-19T07:47:56;16.10;99.90
33095;DHT22;19459;53.044;8.910;2023-09-19T07:50:23;16.20;99.90
33095;DHT22;19459;53.044;8.910;2023-09-19T07:52:50;16.30;99.90
33095;DHT22;19459;53.044;8.910;2023-09-19T07:55:20;16.40;99.90
33095;DHT22;19459;53.044;8.910;2023-09-19T07:57:49;16.40;99.90
33095;DHT22;19459;53.044;8.910;2023-09-19T08:00:15;16.40;99.90
33095;DHT22;19459;53.044;8.910;2023-09-19T08:02:42;16.50;99.90
33095;DHT22;19459;53.044;8.910;2023-09-19T08:05:09;16.60;99.90
33095;DHT22;19459;53.044;8.910;2023-09-19T08:07:43;16.60;99.90
33095;DHT22;19459;53.044;8.910;2023-09-19T08:10:11;16.80;99.90
33095;DHT22;19459;53.044;8.910;2023-09-19T08:12:39;16.90;99.90
33095;DHT22;19459;53.044;8.910;2023-09-19T08:15:16;16.80;99.90
33095;DHT22;19459;53.044;8.910;2023-09-19T08:17:45;16.90;99.90
33095;DHT22;19459;53.044;8.910;2023-09-19T08:20:12;16.90;99.90
33095;DHT22;19459;53.044;8.910;2023-09-19T08:25:18;17.00;99.90
33095;DHT22;19459;53.044;8.910;2023-09-19T08:27:48;17.20;99.90
33095;DHT22;19459;53.044;8.910;2023-09-19T08:30:19;17.30;99.90
33095;DHT22;19459;53.044;8.910;2023-09-19T08:32:49;17.20;99.90
33095;DHT22;19459;53.044;8.910;2023-09-19T08:35:18;17.30;99.90
33095;DHT22;19459;53.044;8.910;2023-09-19T08:37:44;17.20;99.90
33095;DHT22;19459;53.044;8.910;2023-09-19T08:40:11;17.20;99.90
33095;DHT22;19459;53.044;8.910;2023-09-19T08:42:53;17.20;99.90
33095;DHT22;19459;53.044;8.910;2023-09-19T08:45:21;17.20;99.90
33095;DHT22;19459;53.044;8.910;2023-09-19T08:48:20;17.20;99.90
33095;DHT22;19459;53.044;8.910;2023-09-19T08:51:06;17.20;99.90
33095;DHT22;19459;53.044;8.910;2023-09-19T08:53:42;17.40;99.90
33095;DHT22;19459;53.044;8.910;2023-09-19T08:56:17;17.40;99.90
33095;DHT22;19459;53.044;8.910;2023-09-19T08:59:07;17.50;99.90
33095;DHT22;19459;53.044;8.910;2023-09-19T09:01:33;17.40;99.90
33095;DHT22;19459;53.044;8.910;2023-09-19T09:04:02;17.50;99.90
33095;DHT22;19459;53.044;8.910;2023-09-19T09:06:29;17.60;99.90
33095;DHT22;19459;53.044;8.910;2023-09-19T09:08:55;17.50;99.90
33095;DHT22;19459;53.044;8.910;2023-09-19T09:11:22;17.60;99.90
33095;DHT22;19459;53.044;8.910;2023-09-19T09:13:50;17.70;99.90
33095;DHT22;19459;53.044;8.910;2023-09-19T09:16:16;17.90;99.90
33095;DHT22;19459;53.044;8.910;2023-09-19T09:18:45;18.00;99.90
33095;DHT22;19459;53.044;8.910;2023-09-19T09:21:12;17.90;99.90
33095;DHT22;19459;53.044;8.910;2023-09-19T09:23:40;17.90;99.90
33095;DHT22;19459;53.044;8.910;2023-09-19T09:26:05;18.10;99.90
33095;DHT22;19459;53.044;8.910;2023-09-19T09:28:33;18.10;99.90
33095;DHT22;19459;53.044;8.910;2023-09-19T09:31:02;18.00;99.90
33095;DHT22;19459;53.044;8.910;2023-09-19T09:33:35;18.10;99.90
33095;DHT22;19459;53.044;8.910;2023-09-19T09:36:02;18.20;99.90
33095;DHT22;19459;53.044;8.910;2023-09-19T09:38:43;18.30;99.90
33095;DHT22;19459;53.044;8.910;2023-09-19T09:41:11;18.40;99.90
33095;DHT22;19459;53.044;8.910;2023-09-19T09:43:41;18.50;99.90
33095;DHT22;19459;53.044;8.910;2023-09-19T09:46:12;18.50;99.90
33095;DHT22;19459;53.044;8.910;2023-09-19T09:51:42;18.60;99.90
33095;DHT22;19459;53.044;8.910;2023-09-19T09:54:17;19.00;99.90
33095;DHT22;19459;53.044;8.910;2023-09-19T09:56:54;19.20;99.90
33095;DHT22;19459;53.044;8.910;2023-09-19T09:59:55;19.00;99.90
33095;DHT22;19459;53.044;8.910;2023-09-19T10:02:41;18.50;99.90
33095;DHT22;19459;53.044;8.910;2023-09-19T10:05:16;18.60;99.90
33095;DHT22;19459;53.044;8.910;2023-09-19T10:07:47;18.60;99.90
33095;DHT22;19459;53.044;8.910;2023-09-19T10:10:35;18.60;99.90
33095;DHT22;19459;53.044;8.910;2023-09-19T10:13:12;18.50;99.90
33095;DHT22;19459;53.044;8.910;2023-09-19T10:15:43;18.40;99.90
33095;DHT22;19459;53.044;8.910;2023-09-19T10:18:21;18.40;99.90
33095;DHT22;19459;53.044;8.910;2023-09-19T10:20:52;18.40;99.90
33095;DHT22;19459;53.044;8.910;2023-09-19T10:23:19;18.40;99.90
33095;DHT22;19459;53.044;8.910;2023-09-19T10:25:49;18.30;99.90
33095;DHT22;19459;53.044;8.910;2023-09-19T10:28:16;18.30;99.90
33095;DHT22;19459;53.044;8.910;2023-09-19T10:30:48;18.40;99.90
33095;DHT22;19459;53.044;8.910;2023-09-19T10:33:22;18.20;99.90
33095;DHT22;19459;53.044;8.910;2023-09-19T10:35:52;18.10;99.90
33095;DHT22;19459;53.044;8.910;2023-09-19T10:38:26;18.10;99.90
33095;DHT22;19459;53.044;8.910;2023-09-19T10:40:55;18.10;99.90
33095;DHT22;19459;53.044;8.910;2023-09-19T10:43:32;18.40;99.90
33095;DHT22;19459;53.044;8.910;2023-09-19T10:46:02;18.60;99.90
33095;DHT22;19459;53.044;8.910;2023-09-19T10:48:31;18.60;99.90
33095;DHT22;19459;53.044;8.910;2023-09-19T10:51:08;18.50;99.90
33095;DHT22;19459;53.044;8.910;2023-09-19T10:53:47;18.50;99.90
33095;DHT22;19459;53.044;8.910;2023-09-19T10:56:36;18.70;99.90
33095;DHT22;19459;53.044;8.910;2023-09-19T10:59:13;19.00;99.90
33095;DHT22;19459;53.044;8.910;2023-09-19T11:01:56;19.10;99.90
33095;DHT22;19459;53.044;8.910;2023-09-19T11:04:30;19.40;99.90
33095;DHT22;19459;53.044;8.910;2023-09-19T11:07:07;19.50;99.90
33095;DHT22;19459;53.044;8.910;2023-09-19T11:09:52;19.10;99.90
33095;DHT22;19459;53.044;8.910;2023-09-19T11:14:57;19.00;99.90
33095;DHT22;19459;53.044;8.910;2023-09-19T11:30:43;19.70;99.90
33095;DHT22;19459;53.044;8.910;2023-09-19T11:33:19;19.60;99.90
33095;DHT22;19459;53.044;8.910;2023-09-19T11:36:08;19.70;99.90
33095;DHT22;19459;53.044;8.910;2023-09-19T11:49:18;20.00;99.90
33095;DHT22;19459;53.044;8.910;2023-09-19T11:51:51;20.20;99.90
33095;DHT22;19459;53.044;8.910;2023-09-19T11:54:20;20.30;99.90
33095;DHT22;19459;53.044;8.910;2023-09-19T11:56:51;20.30;99.90
33095;DHT22;19459;53.044;8.910;2023-09-19T11:59:24;20.30;99.90
33095;DHT22;19459;53.044;8.910;2023-09-19T12:01:59;19.70;99.90
33095;DHT22;19459;53.044;8.910;2023-09-19T12:04:41;19.50;99.90
33095;DHT22;19459;53.044;8.910;2023-09-19T12:07:10;19.90;99.90
33095;DHT22;19459;53.044;8.910;2023-09-19T12:10:03;20.20;99.90
33095;DHT22;19459;53.044;8.910;2023-09-19T12:12:30;20.20;99.90
33095;DHT22;19459;53.044;8.910;2023-09-19T12:14:59;20.30;99.90
33095;DHT22;19459;53.044;8.910;2023-09-19T12:17:38;20.30;99.90
33095;DHT22;19459;53.044;8.910;2023-09-19T12:20:07;20.30;99.90
33095;DHT22;19459;53.044;8.910;2023-09-19T12:22:43;20.40;99.90
33095;DHT22;19459;53.044;8.910;2023-09-19T12:25:13;20.20;99.90
33095;DHT22;19459;53.044;8.910;2023-09-19T12:27:45;20.20;99.90
33095;DHT22;19459;53.044;8.910;2023-09-19T12:30:27;20.20;99.90
33095;DHT22;19459;53.044;8.910;2023-09-19T12:32:53;20.30;99.90
33095;DHT22;19459;53.044;8.910;2023-09-19T12:35:28;20.20;99.90
33095;DHT22;19459;53.044;8.910;2023-09-19T12:38:01;20.20;99.90
33095;DHT22;19459;53.044;8.910;2023-09-19T12:40:28;20.40;99.90
33095;DHT22;19459;53.044;8.910;2023-09-19T12:42:59;20.80;99.90
33095;DHT22;19459;53.044;8.910;2023-09-19T12:45:25;20.70;99.80
33095;DHT22;19459;53.044;8.910;2023-09-19T12:48:26;21.00;99.90
33095;DHT22;19459;53.044;8.910;2023-09-19T12:51:04;20.90;99.70
33095;DHT22;19459;53.044;8.910;2023-09-19T12:53:40;21.00;99.90
33095;DHT22;19459;53.044;8.910;2023-09-19T12:56:16;21.00;99.00
33095;DHT22;19459;53.044;8.910;2023-09-19T12:58:57;21.20;99.20
33095;DHT22;19459;53.044;8.910;2023-09-19T13:01:32;20.90;99.20
33095;DHT22;19459;53.044;8.910;2023-09-19T13:04:20;20.80;98.90
33095;DHT22;19459;53.044;8.910;2023-09-19T13:06:57;20.90;99.70
33095;DHT22;19459;53.044;8.910;2023-09-19T13:09:27;20.90;99.20
33095;DHT22;19459;53.044;8.910;2023-09-19T13:12:05;21.00;99.90
33095;DHT22;19459;53.044;8.910;2023-09-19T13:15:10;20.90;99.60
33095;DHT22;19459;53.044;8.910;2023-09-19T13:17:48;20.80;99.90
33095;DHT22;19459;53.044;8.910;2023-09-19T13:20:24;20.80;99.90
33095;DHT22;19459;53.044;8.910;2023-09-19T13:22:54;20.80;99.80
33095;DHT22;19459;53.044;8.910;2023-09-19T13:25:24;20.80;99.90
33095;DHT22;19459;53.044;8.910;2023-09-19T13:27:52;20.80;99.90
33095;DHT22;19459;53.044;8.910;2023-09-19T13:30:26;20.80;99.90
33095;DHT22;19459;53.044;8.910;2023-09-19T13:33:09;20.80;99.90
33095;DHT22;19459;53.044;8.910;2023-09-19T13:35:36;20.60;99.90
33095;DHT22;19459;53.044;8.910;2023-09-19T13:38:04;20.80;99.90
33095;DHT22;19459;53.044;8.910;2023-09-19T13:40:29;20.50;99.90
33095;DHT22;19459;53.044;8.910;2023-09-19T13:43:03;20.40;99.90
33095;DHT22;19459;53.044;8.910;2023-09-19T13:45:28;20.60;99.90
33095;DHT22;19459;53.044;8.910;2023-09-19T13:47:56;21.00;99.90
33095;DHT22;19459;53.044;8.910;2023-09-19T13:50:22;21.00;99.90
33095;DHT22;19459;53.044;8.910;2023-09-19T13:52:54;21.20;99.90
33095;DHT22;19459;53.044;8.910;2023-09-19T13:55:21;21.10;99.90
33095;DHT22;19459;53.044;8.910;2023-09-19T13:57:47;20.70;99.90
33095;DHT22;19459;53.044;8.910;2023-09-19T14:00:16;20.60;99.90
33095;DHT22;19459;53.044;8.910;2023-09-19T14:02:43;20.40;99.90
33095;DHT22;19459;53.044;8.910;2023-09-19T14:05:12;20.20;99.90
33095;DHT22;19459;53.044;8.910;2023-09-19T14:07:40;20.20;99.90
33095;DHT22;19459;53.044;8.910;2023-09-19T14:10:07;20.10;99.90
33095;DHT22;19459;53.044;8.910;2023-09-19T14:12:34;20.20;99.90
33095;DHT22;19459;53.044;8.910;2023-09-19T14:15:00;20.30;99.90
33095;DHT22;19459;53.044;8.910;2023-09-19T14:17:26;20.30;99.90
33095;DHT22;19459;53.044;8.910;2023-09-19T14:19:52;20.50;99.90
33095;DHT22;19459;53.044;8.910;2023-09-19T14:22:18;20.50;99.90
33095;DHT22;19459;53.044;8.910;2023-09-19T14:24:44;20.40;99.90
33095;DHT22;19459;53.044;8.910;2023-09-19T14:27:09;20.50;99.90
33095;DHT22;19459;53.044;8.910;2023-09-19T14:29:36;20.50;99.90
33095;DHT22;19459;53.044;8.910;2023-09-19T14:32:03;20.40;99.90
33095;DHT22;19459;53.044;8.910;2023-09-19T14:34:29;20.30;99.90
33095;DHT22;19459;53.044;8.910;2023-09-19T14:36:54;20.10;99.90
33095;DHT22;19459;53.044;8.910;2023-09-19T14:39:20;20.00;99.90
33095;DHT22;19459;53.044;8.910;2023-09-19T14:41:46;20.00;99.90
33095;DHT22;19459;53.044;8.910;2023-09-19T14:44:13;19.90;99.90
33095;DHT22;19459;53.044;8.910;2023-09-19T14:46:41;19.80;99.90
33095;DHT22;19459;53.044;8.910;2023-09-19T14:49:10;19.80;99.90
33095;DHT22;19459;53.044;8.910;2023-09-19T14:51:37;19.70;99.90
33095;DHT22;19459;53.044;8.910;2023-09-19T14:54:05;19.80;99.90
33095;DHT22;19459;53.044;8.910;2023-09-19T14:56:33;19.90;99.90
33095;DHT22;19459;53.044;8.910;2023-09-19T14:58:59;20.00;99.90
33095;DHT22;19459;53.044;8.910;2023-09-19T15:01:25;19.90;99.90
33095;DHT22;19459;53.044;8.910;2023-09-19T15:03:50;19.90;99.90
33095;DHT22;19459;53.044;8.910;2023-09-19T15:06:16;19.80;99.90
33095;DHT22;19459;53.044;8.910;2023-09-19T15:08:45;19.70;99.90
33095;DHT22;19459;53.044;8.910;2023-09-19T15:11:22;19.70;99.90
33095;DHT22;19459;53.044;8.910;2023-09-19T15:13:50;19.50;99.90
33095;DHT22;19459;53.044;8.910;2023-09-19T15:16:16;19.50;99.90
33095;DHT22;19459;53.044;8.910;2023-09-19T15:18:45;19.50;99.90
33095;DHT22;19459;53.044;8.910;2023-09-19T15:21:13;19.50;99.90
33095;DHT22;19459;53.044;8.910;2023-09-19T15:23:41;19.50;99.90
33095;DHT22;19459;53.044;8.910;2023-09-19T15:26:10;19.50;99.90
33095;DHT22;19459;53.044;8.910;2023-09-19T15:28:38;19.50;99.90
33095;DHT22;19459;53.044;8.910;2023-09-19T15:31:05;19.50;99.90
33095;DHT22;19459;53.044;8.910;2023-09-19T15:33:38;19.50;99.90
33095;DHT22;19459;53.044;8.910;2023-09-19T15:36:08;19.40;99.90
33095;DHT22;19459;53.044;8.910;2023-09-19T15:39:08;19.40;99.90
33095;DHT22;19459;53.044;8.910;2023-09-19T15:41:38;19.40;99.90
33095;DHT22;19459;53.044;8.910;2023-09-19T15:44:18;19.40;99.90
33095;DHT22;19459;53.044;8.910;2023-09-19T15:46:45;19.40;99.90
33095;DHT22;19459;53.044;8.910;2023-09-19T15:49:11;19.40;99.90
33095;DHT22;19459;53.044;8.910;2023-09-19T15:51:37;19.50;99.90
33095;DHT22;19459;53.044;8.910;2023-09-19T15:54:08;19.40;99.90
33095;DHT22;19459;53.044;8.910;2023-09-19T15:56:36;19.40;99.90
33095;DHT22;19459;53.044;8.910;2023-09-19T15:59:02;19.40;99.90
33095;DHT22;19459;53.044;8.910;2023-09-19T16:01:28;19.40;99.90
33095;DHT22;19459;53.044;8.910;2023-09-19T16:03:54;19.30;99.90
33095;DHT22;19459;53.044;8.910;2023-09-19T16:06:25;19.30;99.90
33095;DHT22;19459;53.044;8.910;2023-09-19T16:08:54;19.30;99.90
33095;DHT22;19459;53.044;8.910;2023-09-19T16:11:22;19.20;99.90
33095;DHT22;19459;53.044;8.910;2023-09-19T16:13:51;19.20;99.90
33095;DHT22;19459;53.044;8.910;2023-09-19T16:16:20;19.20;99.90
33095;DHT22;19459;53.044;8.910;2023-09-19T16:18:56;19.20;99.90
33095;DHT22;19459;53.044;8.910;2023-09-19T16:21:27;19.10;99.90
33095;DHT22;19459;53.044;8.910;2023-09-19T16:23:53;19.20;99.90
33095;DHT22;19459;53.044;8.910;2023-09-19T16:26:21;19.20;99.90
33095;DHT22;19459;53.044;8.910;2023-09-19T16:28:50;19.20;99.90
33095;DHT22;19459;53.044;8.910;2023-09-19T16:31:17;19.20;99.90
33095;DHT22;19459;53.044;8.910;2023-09-19T16:33:45;19.10;99.90
33095;DHT22;19459;53.044;8.910;2023-09-19T16:36:13;19.20;99.90
33095;DHT22;19459;53.044;8.910;2023-09-19T16:38:41;19.20;99.90
33095;DHT22;19459;53.044;8.910;2023-09-19T16:41:08;19.20;99.90